Time;durP1;ratioP1;P1;durP2;ratioP2;P2;SDS_P1;SDS_P2;PMS_P1;PMS_P2;Temp;Humidity;BMP_temperature;BMP_pressure;BME280_temperature;BME280_humidity;BME280_pressure;Samples;Min_cycle;Max_cycle;Signal;HPM_P1;HPM_P2
2021/08/30 00:00:49;;;;;;;12.15;6.65;;;;;;;15.96;93.11;102285.44;6179612;23;20021;-78
2021/08/30 00:03:14;;;;;;;14.20;6.78;;;;;;;15.94;93.46;102290.72;6183480;23;20377;-82
2021/08/30 00:05:40;;;;;;;16.30;6.55;;;;;;;15.94;93.36;102292.47;6181309;23;20491;-80
2021/08/30 00:08:05;;;;;;;11.68;6.88;;;;;;;15.96;93.50;102298.72;6183568;23;20505;-81
2021/08/30 00:10:31;;;;;;;11.20;5.90;;;;;;;15.99;93.32;102296.09;6184261;23;20005;-81
2021/08/30 00:12:56;;;;;;;10.98;6.60;;;;;;;16.00;93.14;102292.59;6183762;23;20440;-83
2021/08/30 00:15:22;;;;;;;12.43;6.05;;;;;;;16.00;92.94;102292.59;6184054;23;20059;-83
2021/08/30 00:17:49;;;;;;;12.75;6.80;;;;;;;16.01;92.91;102289.94;6183606;23;20005;-82
2021/08/30 00:20:19;;;;;;;10.90;6.30;;;;;;;15.98;92.98;102294.34;6182731;23;20024;-80
2021/08/30 00:22:52;;;;;;;9.65;6.20;;;;;;;15.96;92.97;102296.06;6183022;23;20009;-80
2021/08/30 00:25:17;;;;;;;12.55;6.75;;;;;;;15.95;93.42;102296.91;6183660;23;20036;-77
2021/08/30 00:27:43;;;;;;;15.82;6.85;;;;;;;15.94;93.28;102292.47;6183092;23;20488;-81
2021/08/30 00:30:10;;;;;;;15.93;7.25;;;;;;;15.94;93.83;102298.69;6183177;23;20083;-77
2021/08/30 00:32:35;;;;;;;10.60;7.13;;;;;;;15.94;93.70;102300.44;6183713;23;20151;-82
2021/08/30 00:35:00;;;;;;;19.30;7.88;;;;;;;15.95;93.65;102302.22;6183728;23;20029;-83
2021/08/30 00:37:26;;;;;;;14.55;7.18;;;;;;;15.93;93.54;102306.63;6184467;23;20294;-83
2021/08/30 00:39:52;;;;;;;12.50;7.75;;;;;;;15.94;93.80;102303.06;6184258;23;20008;-79
2021/08/30 00:42:18;;;;;;;10.35;7.03;;;;;;;15.94;93.90;102303.06;6183145;23;20008;-82
2021/08/30 00:44:44;;;;;;;15.65;7.90;;;;;;;15.93;93.73;102304.84;6183134;23;20032;-82
2021/08/30 00:47:09;;;;;;;14.82;7.47;;;;;;;15.94;93.55;102308.38;6183790;23;20001;-82
2021/08/30 00:49:35;;;;;;;14.77;7.45;;;;;;;15.89;94.33;102304.78;6182625;23;20425;-83
2021/08/30 00:52:02;;;;;;;17.13;8.88;;;;;;;15.89;93.95;102300.34;6184683;23;20013;-79
2021/08/30 00:54:31;;;;;;;17.60;7.47;;;;;;;15.92;94.09;102304.81;6188492;23;20008;-76
2021/08/30 00:56:59;;;;;;;13.02;7.72;;;;;;;15.93;94.25;102301.31;6186108;23;20009;-76
2021/08/30 00:59:25;;;;;;;15.27;8.13;;;;;;;15.89;94.03;102300.34;6188110;23;20009;-78
2021/08/30 01:01:51;;;;;;;14.15;8.00;;;;;;;15.91;94.16;102309.25;6182626;23;20454;-78
2021/08/30 01:04:40;;;;;;;14.07;8.32;;;;;;;15.89;94.45;102305.66;6183100;23;20020;-80
2021/08/30 01:07:18;;;;;;;15.07;7.88;;;;;;;15.89;94.55;102304.78;6183313;23;20017;-78
2021/08/30 01:10:02;;;;;;;15.63;8.60;;;;;;;15.83;94.64;102309.09;6156367;23;20017;-79
2021/08/30 01:12:36;;;;;;;12.75;7.72;;;;;;;15.89;94.16;102310.09;6183159;23;20028;-81
2021/08/30 01:15:06;;;;;;;18.08;7.88;;;;;;;15.90;93.87;102312.78;6182669;23;20058;-80
2021/08/30 01:17:34;;;;;;;16.33;8.38;;;;;;;15.89;94.39;102312.75;6183179;23;20009;-82
2021/08/30 01:20:49;;;;;;;15.75;8.70;;;;;;;15.85;94.23;102315.31;6183341;23;20005;-83
2021/08/30 01:23:15;;;;;;;;;;;;;;;15.82;94.49;102309.97;6181559;23;20036;-80
2021/08/30 01:25:41;;;;;;;13.68;8.55;;;;;;;15.85;94.59;102315.31;6181968;23;19904;-76
2021/08/30 01:28:07;;;;;;;14.02;9.20;;;;;;;15.81;95.15;102317.91;6182636;23;20084;-81
2021/08/30 01:30:36;;;;;;;14.18;8.48;;;;;;;15.78;95.22;102321.34;6183053;23;20013;-82
2021/08/30 01:33:02;;;;;;;16.52;8.90;;;;;;;15.78;95.29;102329.31;6182872;23;20124;-83
2021/08/30 01:35:30;;;;;;;17.65;9.00;;;;;;;15.80;95.54;102326.72;6181831;23;20060;-79
2021/08/30 01:38:06;;;;;;;18.90;8.35;;;;;;;15.80;95.39;102332.03;6182969;23;20440;-78
2021/08/30 01:40:32;;;;;;;18.38;8.70;;;;;;;15.78;95.46;102323.13;6183314;23;20032;-79
2021/08/30 01:43:19;;;;;;;20.27;9.23;;;;;;;15.78;95.59;102325.78;6183111;23;20413;-81
2021/08/30 01:45:45;;;;;;;14.40;9.07;;;;;;;15.76;95.91;102325.75;6181932;23;20016;-84
2021/08/30 01:48:12;;;;;;;13.85;8.43;;;;;;;15.76;95.94;102324.84;6182859;23;20017;-83
2021/08/30 01:50:58;;;;;;;17.33;9.23;;;;;;;15.76;95.69;102320.47;6183457;23;20013;-81
2021/08/30 01:53:23;;;;;;;16.00;8.23;;;;;;;15.77;95.39;102327.53;6182714;23;20012;-80
2021/08/30 01:55:53;;;;;;;18.50;9.02;;;;;;;15.79;95.27;102322.25;6181840;23;20009;-80
2021/08/30 02:03:42;;;;;;;15.88;9.57;;;;;;;15.79;95.69;102315.19;6182725;23;20017;-78
2021/08/30 02:06:07;;;;;;;18.85;9.98;;;;;;;15.81;95.63;102316.13;6181457;23;20020;-78
2021/08/30 02:08:34;;;;;;;16.25;10.15;;;;;;;15.81;95.46;102321.44;6182565;23;20009;-78
2021/08/30 02:11:05;;;;;;;17.63;9.48;;;;;;;15.81;95.88;102329.41;6156144;23;20529;-83
2021/08/30 02:13:31;;;;;;;26.10;11.57;;;;;;;15.80;96.09;102327.66;6156392;23;20024;-81
2021/08/30 02:15:59;;;;;;;17.17;10.35;;;;;;;15.78;95.97;102329.31;6182096;23;20005;-78
2021/08/30 02:18:27;;;;;;;24.27;11.25;;;;;;;15.80;95.83;102332.03;6182830;23;20001;-79
2021/08/30 02:21:01;;;;;;;17.30;11.00;;;;;;;15.83;95.66;102321.50;6182614;23;20024;-82
2021/08/30 02:23:31;;;;;;;21.38;12.13;;;;;;;15.81;95.59;102329.41;6181645;23;20079;-78
2021/08/30 02:26:01;;;;;;;19.10;12.20;;;;;;;15.80;95.64;102327.66;6182927;23;20013;-83
2021/08/30 02:28:28;;;;;;;20.85;12.45;;;;;;;15.79;95.94;102323.16;6181593;23;20012;-77
2021/08/30 02:30:55;;;;;;;20.33;12.40;;;;;;;15.80;95.61;102311.72;6182855;23;20020;-82
2021/08/30 02:33:23;;;;;;;21.33;12.73;;;;;;;15.81;95.84;102318.78;6182137;23;20013;-81
2021/08/30 02:35:50;;;;;;;25.42;13.25;;;;;;;15.82;95.48;102315.28;6182139;23;20078;-76
2021/08/30 02:38:16;;;;;;;25.90;13.68;;;;;;;15.80;95.55;102314.38;6151278;23;20021;-79
2021/08/30 02:40:45;;;;;;;25.98;14.80;;;;;;;15.78;95.75;102316.06;6153131;23;20006;-81
2021/08/30 02:43:15;;;;;;;29.85;15.13;;;;;;;15.79;95.70;102306.31;6155128;23;20021;-78
2021/08/30 02:45:41;;;;;;;25.75;14.13;;;;;;;15.78;95.53;102302.78;6154492;23;20076;-76
2021/08/30 02:48:07;;;;;;;22.52;14.15;;;;;;;15.78;95.49;102312.50;6155241;23;20010;-81
2021/08/30 02:50:38;;;;;;;23.75;13.70;;;;;;;15.80;94.99;102305.50;6154534;23;20005;-78
2021/08/30 02:53:04;;;;;;;21.60;12.00;;;;;;;15.83;94.50;102295.84;6154707;23;20017;-80
2021/08/30 02:55:31;;;;;;;30.40;13.18;;;;;;;15.85;93.99;102293.22;6154340;23;20083;-81
2021/08/30 02:57:58;;;;;;;23.83;13.05;;;;;;;15.82;93.97;102298.47;6154219;23;20009;-77
2021/08/30 03:00:24;;;;;;;22.38;12.52;;;;;;;15.85;93.69;102294.09;6150231;23;20414;-79
2021/08/30 03:02:50;;;;;;;20.33;12.73;;;;;;;15.82;93.39;102286.06;6154382;23;20422;-77
2021/08/30 03:05:16;;;;;;;19.13;12.45;;;;;;;15.85;93.59;102286.13;6129010;23;20006;-77
2021/08/30 03:07:48;;;;;;;19.05;11.98;;;;;;;15.83;93.45;102282.56;6154925;23;20013;-82
2021/08/30 03:10:15;;;;;;;23.30;11.95;;;;;;;15.85;92.41;102288.78;6129777;23;20005;-83
2021/08/30 03:12:42;;;;;;;21.88;12.77;;;;;;;15.87;92.14;102277.31;6154181;23;20017;-78
2021/08/30 03:15:20;;;;;;;24.55;13.18;;;;;;;15.80;92.19;102274.56;6128257;23;20005;-80
2021/08/30 03:17:46;;;;;;;23.42;12.65;;;;;;;15.73;92.46;102271.72;6154447;23;20032;-81
2021/08/30 03:20:27;;;;;;;22.55;12.70;;;;;;;15.69;92.51;102270.75;6154241;23;19998;-81
2021/08/30 03:22:56;;;;;;;22.67;12.35;;;;;;;15.59;93.05;102275.00;6127321;23;20381;-80
2021/08/30 03:25:27;;;;;;;23.77;12.10;;;;;;;15.50;93.33;102273.09;6153960;23;20393;-79
2021/08/30 03:28:10;;;;;;;22.60;12.45;;;;;;;15.46;93.14;102268.59;6154118;23;20033;-80
2021/08/30 03:30:36;;;;;;;19.58;11.88;;;;;;;15.40;93.86;102262.28;6153759;23;20056;-79
2021/08/30 03:33:02;;;;;;;18.75;12.52;;;;;;;15.32;93.97;102254.16;6154666;23;20029;-81
2021/08/30 03:35:30;;;;;;;21.65;12.05;;;;;;;15.30;93.97;102266.47;6154983;23;20479;-82
2021/08/30 03:37:56;;;;;;;21.75;12.15;;;;;;;15.21;94.45;102261.91;6167952;23;20044;-78
2021/08/30 03:40:22;;;;;;;24.40;11.77;;;;;;;15.20;94.29;102260.09;6183531;23;20009;-81
2021/08/30 03:43:08;;;;;;;22.42;13.20;;;;;;;15.16;94.05;102261.78;6184291;23;20104;-78
2021/08/30 03:45:34;;;;;;;27.55;13.23;;;;;;;15.13;93.85;102267.03;6184431;23;20016;-81
2021/08/30 03:48:00;;;;;;;19.33;12.75;;;;;;;15.08;94.71;102271.34;6184220;23;20001;-80
2021/08/30 03:50:27;;;;;;;27.23;13.35;;;;;;;15.03;94.57;102277.41;6190184;23;20412;-80
2021/08/30 03:52:53;;;;;;;29.60;13.90;;;;;;;14.99;94.76;102272.06;6187510;23;20009;-78
2021/08/30 03:55:38;;;;;;;26.70;14.40;;;;;;;14.92;95.30;102274.53;6188613;23;20032;-77
2021/08/30 03:58:24;;;;;;;22.25;12.90;;;;;;;14.91;94.76;102278.94;6183463;23;20503;-80
2021/08/30 04:01:10;;;;;;;23.73;13.85;;;;;;;14.82;95.23;102271.69;6178679;23;20005;-79
2021/08/30 04:03:39;;;;;;;31.23;15.43;;;;;;;14.75;95.84;102275.06;6183219;23;20013;-81
2021/08/30 04:06:08;;;;;;;27.13;15.30;;;;;;;14.74;95.21;102275.91;6183495;23;20413;-80
2021/08/30 04:08:34;;;;;;;30.10;15.02;;;;;;;14.71;95.91;102277.63;6184825;23;20044;-77
2021/08/30 04:11:00;;;;;;;28.88;15.05;;;;;;;14.69;95.83;102277.59;6157951;23;20001;-82
2021/08/30 04:13:27;;;;;;;29.48;15.35;;;;;;;14.69;95.82;102285.53;6183506;23;20087;-75
2021/08/30 04:15:53;;;;;;;29.25;17.80;;;;;;;14.65;95.84;102284.56;6183049;23;20005;-82
2021/08/30 04:18:18;;;;;;;36.72;18.15;;;;;;;14.67;95.91;102292.53;6158020;23;20247;-81
2021/08/30 04:20:43;;;;;;;32.78;18.00;;;;;;;14.69;96.38;102288.19;6183486;23;20057;-79
2021/08/30 04:23:09;;;;;;;34.47;16.85;;;;;;;14.67;96.15;102279.28;6184116;23;20009;-79
2021/08/30 04:25:34;;;;;;;34.80;18.08;;;;;;;14.65;96.20;102279.28;6183086;23;20012;-81
2021/08/30 04:28:00;;;;;;;35.53;18.88;;;;;;;14.63;96.14;102280.09;6183275;23;20413;-83
2021/08/30 04:30:25;;;;;;;28.83;17.23;;;;;;;14.60;96.48;102280.00;6183904;23;20009;-82
2021/08/30 04:32:54;;;;;;;32.70;16.92;;;;;;;14.56;96.38;102270.19;6183533;23;20009;-78
2021/08/30 04:35:22;;;;;;;34.25;18.52;;;;;;;14.53;96.48;102283.34;6183700;23;20017;-81
2021/08/30 04:38:04;;;;;;;32.50;17.73;;;;;;;14.50;96.75;102276.22;6152706;23;20017;-82
2021/08/30 04:40:29;;;;;;;43.28;18.40;;;;;;;14.54;96.99;102283.41;6153830;23;20064;-79
2021/08/30 04:42:55;;;;;;;38.22;19.92;;;;;;;14.54;97.79;102280.75;6154158;23;20017;-78
2021/08/30 04:45:20;;;;;;;36.17;18.00;;;;;;;14.55;97.88;102273.69;6153009;23;20022;-82
2021/08/30 04:47:46;;;;;;;29.25;17.35;;;;;;;14.57;98.26;102280.81;6153658;23;20005;-82
2021/08/30 04:50:31;;;;;;;33.60;18.70;;;;;;;14.58;98.05;102284.34;6153227;23;20009;-80
2021/08/30 04:52:57;;;;;;;38.92;18.77;;;;;;;14.59;97.99;102281.72;6152771;23;20314;-77
2021/08/30 04:55:22;;;;;;;33.58;18.00;;;;;;;14.60;98.46;102287.94;6152453;23;20010;-80
2021/08/30 04:57:47;;;;;;;32.67;17.27;;;;;;;14.62;98.68;102291.50;6152758;23;20009;-79
2021/08/30 05:00:13;;;;;;;41.40;19.05;;;;;;;14.63;98.75;102288.03;6147721;23;20359;-78
2021/08/30 05:02:39;;;;;;;36.90;19.52;;;;;;;14.71;99.00;102301.47;6153199;23;20013;-79
2021/08/30 05:05:05;;;;;;;35.60;20.30;;;;;;;14.76;99.14;102306.00;6153427;23;20488;-79
2021/08/30 05:07:31;;;;;;;36.50;19.35;;;;;;;14.82;98.87;102295.53;6152914;23;20002;-83
2021/08/30 05:09:56;;;;;;;33.42;18.13;;;;;;;14.89;98.80;102300.97;6152703;23;20001;-77
2021/08/30 05:12:25;;;;;;;37.17;18.77;;;;;;;14.96;98.71;102308.19;6153853;23;20076;-82
2021/08/30 05:14:51;;;;;;;34.65;19.30;;;;;;;15.01;98.29;102311.84;6153735;23;20434;-79
2021/08/30 05:17:16;;;;;;;28.13;18.40;;;;;;;15.09;98.10;102314.69;6153182;23;20002;-80
2021/08/30 05:19:41;;;;;;;32.63;18.75;;;;;;;15.15;97.89;102321.00;6153265;23;20005;-82
2021/08/30 05:22:07;;;;;;;38.22;18.42;;;;;;;15.17;97.42;102313.97;6152119;23;20500;-78
2021/08/30 05:24:52;;;;;;;31.55;18.63;;;;;;;15.27;97.59;102317.69;6145022;23;20005;-79
2021/08/30 05:27:18;;;;;;;27.08;17.27;;;;;;;15.31;97.32;102314.28;6153015;23;20013;-82
2021/08/30 05:29:43;;;;;;;27.88;17.73;;;;;;;15.38;97.28;102317.03;6152507;23;20032;-79
2021/08/30 05:32:09;;;;;;;33.22;17.88;;;;;;;15.42;96.98;102322.41;6152210;23;20438;-80
2021/08/30 05:34:34;;;;;;;38.00;17.10;;;;;;;15.48;97.00;102332.28;6152806;23;20006;-82
2021/08/30 05:37:00;;;;;;;29.65;17.30;;;;;;;15.55;96.98;102325.34;6153239;23;20356;-79
2021/08/30 05:39:26;;;;;;;29.55;16.50;;;;;;;15.61;97.23;102334.31;6183158;23;20040;-83
2021/08/30 05:41:51;;;;;;;39.08;17.30;;;;;;;15.64;96.25;102329.06;6182849;23;19997;-82
2021/08/30 05:44:17;;;;;;;32.97;17.30;;;;;;;15.71;96.55;102337.13;6184811;23;20009;-77
2021/08/30 05:46:42;;;;;;;26.75;16.50;;;;;;;15.73;96.13;102341.59;6184726;23;20068;-80
2021/08/30 05:49:08;;;;;;;29.15;17.65;;;;;;;15.74;95.79;102343.41;6184230;23;20017;-78
2021/08/30 05:51:33;;;;;;;26.20;17.42;;;;;;;15.77;96.11;102343.44;6184176;23;20001;-83
2021/08/30 05:53:59;;;;;;;32.78;16.63;;;;;;;15.83;95.95;102337.44;6182613;23;20039;-82
2021/08/30 05:56:27;;;;;;;35.53;17.45;;;;;;;15.83;95.43;102337.44;6181946;23;20033;-79
2021/08/30 05:58:52;;;;;;;30.83;18.73;;;;;;;15.83;95.71;102340.97;6183904;23;20001;-83
2021/08/30 06:01:17;;;;;;;29.98;17.77;;;;;;;15.87;95.32;102343.66;6179943;23;20044;-80
2021/08/30 06:03:45;;;;;;;29.63;17.73;;;;;;;15.91;95.43;102334.88;6185698;23;20001;-77
2021/08/30 06:06:11;;;;;;;35.95;17.45;;;;;;;15.90;95.26;102338.41;6183972;23;20083;-81
2021/08/30 06:08:37;;;;;;;36.03;18.33;;;;;;;15.95;95.27;102337.66;6187298;23;20013;-86
2021/08/30 06:11:02;;;;;;;27.83;17.33;;;;;;;15.95;94.74;102339.38;6188164;23;19997;-77
2021/08/30 06:13:28;;;;;;;29.25;17.65;;;;;;;16.00;94.76;102343.03;6185980;23;20013;-82
2021/08/30 06:16:09;;;;;;;32.28;18.65;;;;;;;15.99;94.24;102339.50;6184436;23;20001;-80
2021/08/30 06:18:35;;;;;;;30.38;18.20;;;;;;;16.08;94.16;102338.75;6185377;23;20448;-80
2021/08/30 06:21:00;;;;;;;30.13;15.93;;;;;;;16.15;94.14;102340.63;6182908;23;20005;-84
2021/08/30 06:23:27;;;;;;;31.38;15.70;;;;;;;16.16;93.62;102342.44;6185022;23;20384;-82
2021/08/30 06:25:53;;;;;;;30.27;16.55;;;;;;;16.21;93.73;102334.56;6178047;23;20055;-81
2021/08/30 06:28:18;;;;;;;29.65;15.55;;;;;;;16.27;93.52;102341.72;6185723;23;20070;-78
2021/08/30 06:30:44;;;;;;;26.80;16.80;;;;;;;16.30;93.28;102342.66;6187477;23;20005;-79
2021/08/30 06:33:09;;;;;;;24.30;15.77;;;;;;;16.32;93.28;102345.38;6186374;23;20015;-76
2021/08/30 06:35:37;;;;;;;27.15;16.80;;;;;;;16.31;93.69;102341.78;6186741;23;20004;-80
2021/08/30 06:38:06;;;;;;;31.00;15.95;;;;;;;16.36;93.03;102341.91;6181493;23;20024;-85
2021/08/30 06:40:33;;;;;;;25.38;16.00;;;;;;;16.36;93.05;102341.91;6185900;23;20006;-83
2021/08/30 06:42:58;;;;;;;24.17;15.48;;;;;;;16.39;93.23;102347.25;6187065;23;20429;-81
2021/08/30 06:45:44;;;;;;;22.77;14.50;;;;;;;16.42;93.27;102344.63;6188271;23;20007;-80
2021/08/30 06:48:09;;;;;;;23.00;14.93;;;;;;;16.47;93.02;102339.41;6183558;23;20012;-83
2021/08/30 06:50:54;;;;;;;28.38;15.63;;;;;;;16.54;92.66;102343.94;6185150;23;20001;-81
2021/08/30 06:53:20;;;;;;;24.83;15.55;;;;;;;16.58;92.26;102342.25;6179386;23;20029;-81
2021/08/30 06:55:45;;;;;;;28.83;14.70;;;;;;;16.64;92.11;102344.97;6163299;23;20346;-81
2021/08/30 06:58:11;;;;;;;24.08;13.63;;;;;;;16.69;91.51;102343.28;6178278;23;20451;-79
2021/08/30 07:00:41;;;;;;;23.42;15.18;;;;;;;16.74;91.77;102349.56;6174164;23;20005;-88
2021/08/30 07:03:07;;;;;;;20.58;14.15;;;;;;;16.79;92.14;102349.63;6183021;23;20013;-79
2021/08/30 07:05:33;;;;;;;28.23;14.27;;;;;;;16.81;91.94;102348.78;6184395;23;20028;-82
2021/08/30 07:07:58;;;;;;;19.45;13.70;;;;;;;16.87;91.07;102350.63;6184472;23;20452;-80
2021/08/30 07:10:24;;;;;;;22.58;14.38;;;;;;;16.86;91.00;102349.75;6185298;23;20013;-82
2021/08/30 07:12:49;;;;;;;28.85;14.98;;;;;;;16.88;91.16;102348.91;6186801;23;20090;-79
2021/08/30 07:15:15;;;;;;;29.25;15.48;;;;;;;16.90;90.82;102349.81;6185832;23;20076;-81
2021/08/30 07:17:43;;;;;;;26.30;14.50;;;;;;;16.94;90.30;102343.69;6187066;23;20001;-78
2021/08/30 07:20:29;;;;;;;20.83;14.30;;;;;;;16.95;90.03;102345.47;6159437;23;20017;-82
2021/08/30 07:22:54;;;;;;;21.98;14.15;;;;;;;16.97;90.03;102349.94;6187864;23;20015;-77
2021/08/30 07:25:40;;;;;;;23.25;13.85;;;;;;;17.01;89.81;102340.22;6185404;23;20402;-80
2021/08/30 07:28:05;;;;;;;20.27;12.80;;;;;;;17.08;89.38;102343.88;6186584;23;20015;-82
2021/08/30 07:30:31;;;;;;;23.33;13.57;;;;;;;17.11;89.42;102344.81;6181642;23;20477;-81
2021/08/30 07:32:56;;;;;;;23.55;13.93;;;;;;;17.14;88.66;102342.19;6185258;23;20005;-82
2021/08/30 07:35:23;;;;;;;21.83;13.20;;;;;;;17.18;88.63;102348.44;6184544;23;20054;-84
2021/08/30 07:37:51;;;;;;;19.67;12.02;;;;;;;17.25;88.86;102349.44;6179531;23;20079;-84
2021/08/30 07:40:16;;;;;;;20.85;12.88;;;;;;;17.26;88.26;102346.78;6184745;23;20141;-83
2021/08/30 07:42:42;;;;;;;23.33;12.63;;;;;;;17.16;88.21;102356.41;6184581;23;20008;-84
2021/08/30 07:45:08;;;;;;;21.35;13.55;;;;;;;17.17;88.46;102357.28;6182933;23;20016;-80
2021/08/30 07:47:34;;;;;;;22.45;13.63;;;;;;;17.18;88.81;102359.09;6182849;23;20091;-86
2021/08/30 07:50:00;;;;;;;25.02;13.32;;;;;;;17.24;88.98;102353.88;6180978;23;20043;-80
2021/08/30 07:52:28;;;;;;;25.60;13.32;;;;;;;17.28;88.83;102357.44;6177922;23;20005;-81
2021/08/30 07:54:54;;;;;;;22.40;12.80;;;;;;;17.34;88.26;102357.53;6183248;23;20028;-82
2021/08/30 07:57:19;;;;;;;21.02;12.05;;;;;;;17.38;89.25;102372.66;6180591;23;20341;-83
2021/08/30 07:59:45;;;;;;;24.08;12.60;;;;;;;17.36;88.47;102361.09;6180002;23;20016;-87
2021/08/30 08:02:10;;;;;;;22.00;12.65;;;;;;;17.40;88.49;102368.22;6177127;23;20309;-83
2021/08/30 08:04:36;;;;;;;19.40;12.70;;;;;;;17.40;88.38;102365.56;6156163;23;20016;-79
2021/08/30 08:07:11;;;;;;;21.88;12.80;;;;;;;17.55;87.96;102379.97;6183589;23;20009;-81
2021/08/30 08:09:37;;;;;;;26.20;13.65;;;;;;;17.59;88.24;102371.13;6184136;23;20015;-81
2021/08/30 08:12:02;;;;;;;22.27;12.23;;;;;;;17.66;88.07;102368.56;6185599;23;20084;-79
2021/08/30 08:14:28;;;;;;;25.85;12.82;;;;;;;17.75;86.99;102373.09;6181881;23;20027;-80
2021/08/30 08:16:55;;;;;;;24.85;11.77;;;;;;;17.81;87.12;102367.84;6182637;23;20428;-80
2021/08/30 08:19:20;;;;;;;29.38;12.82;;;;;;;17.80;86.79;102376.72;6183101;23;20017;-84
2021/08/30 08:21:47;;;;;;;23.42;12.52;;;;;;;17.75;87.04;102370.44;6181592;23;20465;-81
2021/08/30 08:24:36;;;;;;;29.20;12.93;;;;;;;17.81;87.58;102377.59;6182599;23;20013;-87
2021/08/30 08:27:23;;;;;;;20.27;12.13;;;;;;;17.94;87.94;102381.31;6182071;23;20564;-78
2021/08/30 08:29:48;;;;;;;23.70;12.30;;;;;;;18.03;87.13;102378.75;6179807;23;20396;-84
2021/08/30 08:32:14;;;;;;;21.90;12.40;;;;;;;18.09;86.80;102381.47;6178734;23;20072;-82
2021/08/30 08:34:55;;;;;;;20.42;11.80;;;;;;;18.14;87.56;102377.09;6182408;23;20088;-80
2021/08/30 08:37:23;;;;;;;19.45;11.30;;;;;;;18.22;87.75;102379.84;6182528;23;20024;-80
2021/08/30 08:39:48;;;;;;;27.55;11.82;;;;;;;18.25;86.57;102370.97;6182579;23;20040;-80
2021/08/30 08:42:17;;;;;;;18.83;10.70;;;;;;;18.29;86.47;102368.34;6182317;23;20333;-83
2021/08/30 08:44:48;;;;;;;26.80;11.07;;;;;;;18.28;86.34;102373.66;6180077;23;20004;-81
2021/08/30 08:47:37;;;;;;;23.30;11.20;;;;;;;18.39;85.74;102377.31;6181289;23;20039;-83
2021/08/30 08:50:06;;;;;;;23.13;10.32;;;;;;;18.40;85.38;102373.78;6183153;23;20015;-88
2021/08/30 08:52:33;;;;;;;22.70;11.60;;;;;;;18.50;86.01;102375.66;6183366;23;20005;-82
2021/08/30 08:55:19;;;;;;;18.35;10.70;;;;;;;18.51;84.48;102365.88;6182111;23;20008;-83
2021/08/30 08:57:44;;;;;;;20.02;9.95;;;;;;;18.54;84.50;102365.88;6183257;23;20008;-79
2021/08/30 09:00:21;;;;;;;17.67;9.80;;;;;;;18.58;84.69;102364.13;6178237;23;20001;-79
2021/08/30 09:02:50;;;;;;;17.98;11.15;;;;;;;18.66;85.22;102370.41;6155913;23;20009;-81
2021/08/30 09:05:25;;;;;;;20.98;10.63;;;;;;;18.80;84.26;102359.84;6183340;23;20071;-83
2021/08/30 09:07:56;;;;;;;20.75;10.35;;;;;;;18.93;84.00;102366.19;6184173;23;20344;-82
2021/08/30 09:10:25;;;;;;;18.83;10.18;;;;;;;19.05;84.09;102363.59;6182170;23;20076;-78
2021/08/30 09:13:02;;;;;;;16.65;9.68;;;;;;;19.07;83.47;102356.47;6184536;23;20444;-82
2021/08/30 09:15:27;;;;;;;19.63;8.82;;;;;;;19.03;82.42;102360.94;6182598;23;20429;-81
2021/08/30 09:18:15;;;;;;;19.02;9.10;;;;;;;19.10;81.83;102360.94;6183986;23;20001;-79
2021/08/30 09:20:42;;;;;;;19.77;8.70;;;;;;;19.04;81.89;102356.47;6184483;23;20036;-82
2021/08/30 09:23:15;;;;;;;19.35;8.90;;;;;;;19.01;81.66;102357.34;6183170;23;20417;-80
2021/08/30 09:25:43;;;;;;;17.55;8.93;;;;;;;19.12;81.75;102365.41;6181902;23;20009;-84
2021/08/30 09:28:08;;;;;;;23.45;10.25;;;;;;;19.13;81.24;102359.19;6180903;23;20020;-86
2021/08/30 09:30:34;;;;;;;20.38;9.27;;;;;;;19.37;82.00;102370.84;6184946;23;20005;-76
2021/08/30 09:33:00;;;;;;;18.35;9.15;;;;;;;19.57;80.23;102356.72;6180808;23;20369;-82
2021/08/30 09:35:26;;;;;;;18.95;9.35;;;;;;;19.53;79.93;102362.06;6184867;23;20016;-81
2021/08/30 09:37:53;;;;;;;20.35;8.93;;;;;;;19.49;79.14;102364.69;6185790;23;20028;-84
2021/08/30 09:40:21;;;;;;;21.10;9.85;;;;;;;19.60;79.42;102362.97;6184725;23;20398;-79
2021/08/30 09:42:51;;;;;;;19.27;8.60;;;;;;;19.55;79.51;102365.59;6184069;23;20095;-79
2021/08/30 09:45:43;;;;;;;19.55;9.70;;;;;;;19.61;80.14;102364.72;6159257;23;20436;-81
2021/08/30 09:48:25;;;;;;;17.35;8.57;;;;;;;19.71;79.81;102365.66;6182529;23;20012;-84
2021/08/30 09:50:50;;;;;;;25.08;8.27;;;;;;;19.77;78.99;102370.13;6181792;23;20410;-82
2021/08/30 09:53:16;;;;;;;18.23;8.25;;;;;;;19.75;78.60;102363.88;6182460;23;20005;-81
2021/08/30 09:55:45;;;;;;;15.55;8.27;;;;;;;19.66;78.41;102362.97;6177540;23;20005;-86
2021/08/30 09:58:15;;;;;;;21.83;8.48;;;;;;;19.63;78.60;102367.41;6184724;23;20326;-85
2021/08/30 10:00:42;;;;;;;19.13;8.07;;;;;;;19.78;79.14;102367.47;6178222;23;20016;-81
2021/08/30 10:03:47;;;;;;;20.52;9.48;;;;;;;19.95;79.90;102374.66;6180749;23;20008;-80
2021/08/30 10:06:14;;;;;;;18.70;9.45;;;;;;;20.19;77.68;102364.00;6183487;23;20009;-78
2021/08/30 10:08:41;;;;;;;20.30;9.02;;;;;;;20.28;77.61;102367.56;6185936;23;20077;-86
2021/08/30 10:11:06;;;;;;;19.58;8.55;;;;;;;20.28;77.51;102363.13;6185607;23;20013;-78
2021/08/30 10:13:52;;;;;;;14.88;8.18;;;;;;;20.16;77.99;102366.66;6186970;23;20012;-82
2021/08/30 10:16:38;;;;;;;20.27;8.25;;;;;;;20.12;77.36;102362.22;6183207;23;20016;-85
2021/08/30 10:19:07;;;;;;;13.63;7.78;;;;;;;20.31;77.05;102362.22;6183358;23;20056;-82
2021/08/30 10:22:12;;;;;;;24.92;7.78;;;;;;;20.38;78.30;102359.53;6183059;23;20001;-83
2021/08/30 10:24:40;;;;;;;19.83;8.23;;;;;;;20.43;76.31;102356.88;6183578;23;20013;-87
2021/08/30 10:27:09;;;;;;;16.65;8.38;;;;;;;20.36;76.55;102363.09;6184939;23;20005;-84
2021/08/30 10:29:41;;;;;;;16.40;8.18;;;;;;;20.40;76.06;102354.19;6181688;23;20485;-83
2021/08/30 10:32:22;;;;;;;21.30;7.72;;;;;;;20.29;75.88;102364.00;6181991;23;20337;-83
2021/08/30 10:35:31;;;;;;;15.52;7.88;;;;;;;20.20;76.66;102365.78;6159000;23;20009;-80
2021/08/30 10:38:07;;;;;;;23.20;8.77;;;;;;;20.16;77.34;102369.34;6183784;23;20017;-81
2021/08/30 10:40:57;;;;;;;17.35;8.02;;;;;;;20.01;77.25;102364.00;6183859;23;20405;-85
2021/08/30 10:43:28;;;;;;;24.98;9.07;;;;;;;20.15;77.78;102366.66;6185030;23;20009;-79
2021/08/30 10:46:16;;;;;;;20.17;8.50;;;;;;;20.14;77.43;102371.09;6184536;23;20059;-81
2021/08/30 10:49:09;;;;;;;15.13;7.97;;;;;;;20.07;77.00;102371.13;6185612;23;20009;-86
2021/08/30 10:51:38;;;;;;;22.05;8.13;;;;;;;19.96;77.88;102371.09;6159454;23;20012;-79
2021/08/30 10:54:24;;;;;;;18.80;7.43;;;;;;;19.94;78.40;102373.78;6187815;23;20012;-81
2021/08/30 10:56:58;;;;;;;17.38;8.25;;;;;;;19.93;78.86;102380.00;6155372;23;20017;-81
2021/08/30 10:59:30;;;;;;;22.85;8.15;;;;;;;20.38;79.99;102380.03;6180951;23;20020;-82
2021/08/30 11:02:06;;;;;;;15.73;7.32;;;;;;;20.77;76.26;102372.03;6175754;23;20095;-82
2021/08/30 11:04:39;;;;;;;15.82;8.82;;;;;;;21.12;74.40;102368.38;6176758;23;20005;-88
2021/08/30 11:07:08;;;;;;;17.75;7.85;;;;;;;21.30;72.70;102356.72;6184752;23;20052;-83
2021/08/30 11:09:35;;;;;;;18.83;8.35;;;;;;;21.62;72.13;102355.72;6181416;23;20044;-78
2021/08/30 11:12:12;;;;;;;16.33;7.88;;;;;;;21.58;71.52;102356.63;6158384;23;20008;-81
2021/08/30 11:14:38;;;;;;;21.08;7.45;;;;;;;21.70;71.41;102357.47;6185090;23;20428;-87
2021/08/30 11:17:04;;;;;;;14.68;7.32;;;;;;;21.63;71.39;102354.81;6185046;23;20005;-80
2021/08/30 11:19:29;;;;;;;16.77;7.25;;;;;;;22.13;69.83;102356.28;6184368;23;20015;-85
2021/08/30 11:22:15;;;;;;;19.40;7.15;;;;;;;22.88;71.57;102367.25;6184884;23;20032;-85
2021/08/30 11:25:01;;;;;;;16.65;6.90;;;;;;;23.33;67.66;102350.66;6185321;23;20024;-86
2021/08/30 11:27:30;;;;;;;15.13;6.80;;;;;;;23.37;68.80;102352.41;6184260;23;20400;-78
2021/08/30 11:29:58;;;;;;;14.93;7.32;;;;;;;23.23;65.52;102337.34;6186700;23;20020;-79